createdAt,value
2023-12-28T00:00:51.356Z,22.08
2023-12-28T00:03:39.075Z,24.17
2023-12-28T00:06:26.795Z,24.95
2023-12-28T00:09:14.623Z,26.65
2023-12-28T00:12:02.455Z,26.92
2023-12-28T00:14:50.135Z,23.30
2023-12-28T00:17:37.862Z,24.25
2023-12-28T00:20:26.446Z,20.95
2023-12-28T00:23:15.004Z,33.15
2023-12-28T00:26:02.638Z,23.30
2023-12-28T00:28:50.883Z,23.52
2023-12-28T00:31:38.983Z,24.50
2023-12-28T00:34:27.238Z,19.95
2023-12-28T00:37:15.258Z,19.52
2023-12-28T00:40:02.917Z,23.70
2023-12-28T00:42:50.805Z,23.35
2023-12-28T00:45:38.517Z,39.42
2023-12-28T00:48:26.227Z,28.65
2023-12-28T00:51:15.461Z,24.25
2023-12-28T00:54:02.997Z,36.08
2023-12-28T00:56:50.626Z,31.80
2023-12-28T00:59:38.238Z,24.67
2023-12-28T01:02:25.997Z,27.60
2023-12-28T01:05:13.925Z,30.30
2023-12-28T01:08:03.785Z,27.60
2023-12-28T01:10:51.935Z,13.20
2023-12-28T01:13:42.429Z,12.80
2023-12-28T01:16:30.517Z,12.52
2023-12-28T01:19:18.472Z,9.60
2023-12-28T01:22:06.250Z,8.45
2023-12-28T01:24:54.159Z,9.55
2023-12-28T01:27:41.783Z,10.52
2023-12-28T01:30:29.778Z,9.90
2023-12-28T01:33:18.430Z,9.93
2023-12-28T01:36:36.011Z,17.70
2023-12-28T01:39:23.797Z,10.73
2023-12-28T01:42:11.485Z,7.85
2023-12-28T01:44:59.293Z,15.02
2023-12-28T01:47:47.580Z,11.00
2023-12-28T01:50:35.301Z,13.05
2023-12-28T01:53:23.400Z,11.85
2023-12-28T01:56:11.336Z,8.80
2023-12-28T01:58:59.840Z,8.15
2023-12-28T02:01:47.786Z,11.48
2023-12-28T02:04:36.530Z,7.97
2023-12-28T02:07:25.527Z,14.13
2023-12-28T02:10:14.005Z,10.43
2023-12-28T02:13:01.573Z,14.20
2023-12-28T02:15:53.547Z,8.63
2023-12-28T02:18:45.734Z,11.77
2023-12-28T02:21:33.938Z,20.67
2023-12-28T02:24:30.782Z,11.13
2023-12-28T02:27:19.774Z,9.77
2023-12-28T02:30:08.655Z,21.02
2023-12-28T02:33:11.921Z,16.33
2023-12-28T02:36:02.544Z,15.85
2023-12-28T02:38:50.715Z,12.05
2023-12-28T02:41:38.996Z,14.02
2023-12-28T02:44:26.750Z,19.80
2023-12-28T02:47:15.372Z,15.60
2023-12-28T02:50:03.173Z,15.95
2023-12-28T02:52:50.871Z,16.00
2023-12-28T02:55:38.474Z,14.35
2023-12-28T02:58:26.071Z,17.42
2023-12-28T03:01:13.922Z,27.27
2023-12-28T03:04:01.746Z,25.55
2023-12-28T03:06:49.543Z,21.95
2023-12-28T03:09:39.724Z,14.52
2023-12-28T03:12:27.431Z,18.20
2023-12-28T03:15:15.302Z,19.17
2023-12-28T03:18:06.663Z,12.32
2023-12-28T03:20:54.529Z,20.37
2023-12-28T03:23:42.122Z,15.48
2023-12-28T03:26:30.111Z,19.50
2023-12-28T03:29:18.058Z,25.33
2023-12-28T03:32:06.008Z,20.08
2023-12-28T03:34:53.667Z,31.13
2023-12-28T03:37:41.237Z,33.10
2023-12-28T03:40:28.807Z,41.55
2023-12-28T03:43:16.403Z,34.70
2023-12-28T03:46:04.059Z,39.72
2023-12-28T03:48:52.373Z,27.83
2023-12-28T03:51:40.154Z,25.25
2023-12-28T03:54:27.795Z,33.50
2023-12-28T03:57:15.618Z,26.67
2023-12-28T04:00:03.528Z,22.45
2023-12-28T04:03:03.236Z,33.80
2023-12-28T04:05:52.472Z,25.00
2023-12-28T04:08:43.598Z,18.80
2023-12-28T04:11:31.670Z,18.52
2023-12-28T04:14:19.413Z,10.65
2023-12-28T04:17:09.970Z,19.10
2023-12-28T04:19:58.967Z,15.98
2023-12-28T04:22:47.237Z,14.13
2023-12-28T04:25:34.843Z,8.25
2023-12-28T04:28:22.494Z,12.80
2023-12-28T04:31:10.480Z,8.00
2023-12-28T04:33:58.712Z,15.32
2023-12-28T04:36:48.050Z,14.15
2023-12-28T04:39:35.991Z,14.82
2023-12-28T04:42:26.116Z,9.45
2023-12-28T04:45:14.038Z,6.70
2023-12-28T04:48:02.243Z,10.10
2023-12-28T04:50:51.536Z,20.80
2023-12-28T04:53:40.549Z,10.10
2023-12-28T04:56:28.308Z,9.00
2023-12-28T04:59:16.087Z,20.75
2023-12-28T05:02:03.881Z,17.92
2023-12-28T05:04:52.063Z,14.23
2023-12-28T05:07:43.472Z,21.60
2023-12-28T05:10:36.346Z,14.60
2023-12-28T05:13:24.186Z,17.77
2023-12-28T05:16:11.980Z,23.92
2023-12-28T05:18:59.809Z,17.55
2023-12-28T05:21:48.531Z,23.25
2023-12-28T05:24:41.066Z,25.60
2023-12-28T05:27:29.996Z,17.45
2023-12-28T05:30:18.676Z,17.63
2023-12-28T05:33:07.790Z,21.27
2023-12-28T05:35:56.167Z,15.60
2023-12-28T05:38:43.905Z,26.48
2023-12-28T05:41:31.765Z,21.80
2023-12-28T05:44:19.719Z,21.70
2023-12-28T05:47:07.369Z,24.58
2023-12-28T05:49:55.654Z,14.65
2023-12-28T05:52:44.370Z,25.00
2023-12-28T05:55:32.463Z,26.10
2023-12-28T05:58:20.292Z,28.20
2023-12-28T06:01:08.197Z,18.88
2023-12-28T06:03:56.047Z,23.48
2023-12-28T06:06:43.812Z,16.27
2023-12-28T06:09:31.679Z,21.65
2023-12-28T06:12:19.448Z,21.17
2023-12-28T06:15:10.689Z,21.65
2023-12-28T06:17:59.328Z,20.77
2023-12-28T06:20:47.100Z,23.77
2023-12-28T06:23:34.792Z,40.60
2023-12-28T06:26:22.521Z,39.63
2023-12-28T06:29:11.419Z,34.63
2023-12-28T06:31:59.089Z,40.92
2023-12-28T06:34:46.827Z,61.03
2023-12-28T06:37:34.710Z,75.57
2023-12-28T06:40:22.357Z,49.10
2023-12-28T06:43:09.979Z,50.70
2023-12-28T06:45:57.622Z,61.40
2023-12-28T06:48:45.460Z,46.25
2023-12-28T06:51:34.573Z,106.05
2023-12-28T06:54:22.580Z,72.18
2023-12-28T06:57:10.270Z,56.63
2023-12-28T06:59:59.727Z,45.65
2023-12-28T07:02:47.500Z,22.38
2023-12-28T07:05:35.297Z,22.73
2023-12-28T07:08:23.053Z,21.70
2023-12-28T07:11:15.513Z,36.47
2023-12-28T07:14:03.194Z,43.70
2023-12-28T07:16:51.016Z,27.75
2023-12-28T07:19:38.748Z,43.72
2023-12-28T07:22:26.401Z,75.20
2023-12-28T07:25:14.183Z,44.33
2023-12-28T07:28:02.227Z,42.92
2023-12-28T07:30:50.159Z,33.38
2023-12-28T07:33:37.892Z,35.03
2023-12-28T07:36:27.816Z,41.70
2023-12-28T07:39:16.319Z,46.70
2023-12-28T07:42:03.991Z,38.70
2023-12-28T07:44:51.669Z,21.98
2023-12-28T07:47:39.450Z,24.70
2023-12-28T07:50:27.376Z,24.92
2023-12-28T07:53:15.044Z,24.00
2023-12-28T07:56:04.802Z,29.52
2023-12-28T07:58:53.931Z,13.30
2023-12-28T08:01:41.671Z,15.45
2023-12-28T08:04:29.587Z,16.63
2023-12-28T08:07:17.240Z,20.15
2023-12-28T08:10:05.344Z,33.67
2023-12-28T08:12:52.999Z,28.17
2023-12-28T08:15:40.824Z,16.98
2023-12-28T08:18:28.465Z,34.50
2023-12-28T08:21:16.317Z,18.98
2023-12-28T08:24:04.231Z,14.13
2023-12-28T08:26:54.260Z,11.88
2023-12-28T08:29:43.629Z,12.00
2023-12-28T08:32:32.023Z,9.20
2023-12-28T08:35:19.722Z,8.68
2023-12-28T08:38:08.005Z,12.70
2023-12-28T08:40:55.588Z,6.65
2023-12-28T08:43:44.198Z,7.75
2023-12-28T08:46:32.504Z,8.15
2023-12-28T08:49:20.520Z,8.40
2023-12-28T08:52:08.376Z,7.25
2023-12-28T08:54:56.761Z,11.55
2023-12-28T08:57:45.241Z,8.80
2023-12-28T09:00:33.178Z,11.32
2023-12-28T09:03:25.267Z,13.35
2023-12-28T09:09:05.323Z,7.93
2023-12-28T09:11:53.959Z,11.35
2023-12-28T09:14:41.587Z,13.32
2023-12-28T09:17:29.306Z,17.63
2023-12-28T09:20:17.037Z,12.55
2023-12-28T09:23:04.934Z,14.45
2023-12-28T09:25:53.545Z,14.52
2023-12-28T09:28:42.169Z,8.88
2023-12-28T09:31:29.881Z,8.35
2023-12-28T09:34:20.550Z,9.45
2023-12-28T09:37:10.763Z,12.50
2023-12-28T09:39:59.167Z,8.73
2023-12-28T09:42:52.814Z,11.27
2023-12-28T09:45:40.628Z,18.33
2023-12-28T09:48:33.903Z,10.27
2023-12-28T09:51:21.846Z,4.85
2023-12-28T09:54:09.446Z,9.32
2023-12-28T09:56:58.156Z,11.48
2023-12-28T09:59:45.822Z,5.68
2023-12-28T10:02:37.010Z,8.15
2023-12-28T10:05:24.761Z,6.57
2023-12-28T10:08:17.306Z,5.28
2023-12-28T10:11:05.834Z,12.18
2023-12-28T10:13:56.402Z,5.15
2023-12-28T10:16:44.111Z,5.10
2023-12-28T10:19:32.096Z,10.13
2023-12-28T10:22:21.329Z,9.40
2023-12-28T10:25:09.257Z,9.60
2023-12-28T10:27:56.889Z,12.07
2023-12-28T10:30:44.684Z,8.55
2023-12-28T10:33:38.905Z,7.82
2023-12-28T10:36:28.775Z,9.93
2023-12-28T10:39:19.283Z,7.07
2023-12-28T10:42:10.627Z,15.02
2023-12-28T10:45:03.278Z,5.45
2023-12-28T10:48:12.361Z,9.88
2023-12-28T10:51:02.064Z,11.00
2023-12-28T10:54:00.046Z,14.25
2023-12-28T10:56:51.537Z,10.75
2023-12-28T10:59:48.489Z,12.45
2023-12-28T11:02:40.595Z,8.00
2023-12-28T11:08:20.763Z,6.88
2023-12-28T11:11:09.070Z,4.00
2023-12-28T11:13:57.508Z,6.22
2023-12-28T11:16:46.154Z,10.45
2023-12-28T11:19:35.069Z,7.78
2023-12-28T11:22:27.006Z,6.07
2023-12-28T11:25:19.095Z,11.55
2023-12-28T11:28:13.364Z,13.88
2023-12-28T11:31:01.360Z,14.05
2023-12-28T11:34:01.008Z,8.60
2023-12-28T11:36:51.518Z,7.57
2023-12-28T11:39:41.664Z,6.35
2023-12-28T11:42:32.205Z,8.43
2023-12-28T11:45:22.850Z,8.15
2023-12-28T11:48:26.223Z,8.43
2023-12-28T11:51:14.066Z,8.50
2023-12-28T11:54:01.874Z,10.65
2023-12-28T11:56:50.001Z,5.07
2023-12-28T11:59:39.660Z,10.65
2023-12-28T12:02:27.669Z,8.77
2023-12-28T12:05:21.656Z,7.57
2023-12-28T12:08:12.275Z,9.35
2023-12-28T12:11:05.175Z,7.13
2023-12-28T12:13:53.228Z,5.82
2023-12-28T12:16:40.945Z,4.93
2023-12-28T12:19:29.077Z,11.57
2023-12-28T12:22:20.193Z,7.38
2023-12-28T12:25:10.679Z,12.73
2023-12-28T12:27:58.298Z,7.72
2023-12-28T12:30:53.427Z,10.65
2023-12-28T12:33:41.435Z,6.55
2023-12-28T12:36:29.317Z,10.95
2023-12-28T12:39:16.989Z,9.80
2023-12-28T12:42:04.849Z,10.48
2023-12-28T12:44:52.515Z,8.93
2023-12-28T12:47:41.230Z,9.10
2023-12-28T12:50:35.415Z,8.20
2023-12-28T12:53:23.802Z,11.07
2023-12-28T12:56:12.500Z,10.10
2023-12-28T12:59:01.044Z,6.53
2023-12-28T13:01:54.670Z,5.13
2023-12-28T13:04:51.848Z,6.20
2023-12-28T13:07:40.207Z,8.75
2023-12-28T13:10:28.067Z,9.93
2023-12-28T13:13:15.707Z,4.03
2023-12-28T13:16:04.146Z,5.03
2023-12-28T13:18:52.327Z,9.95
2023-12-28T13:21:40.902Z,11.90
2023-12-28T13:24:28.719Z,6.80
2023-12-28T13:27:16.453Z,4.53
2023-12-28T13:30:04.847Z,12.68
2023-12-28T13:32:53.683Z,8.95
2023-12-28T13:35:41.292Z,8.38
2023-12-28T13:38:32.460Z,13.85
2023-12-28T13:41:21.205Z,12.73
2023-12-28T13:44:13.903Z,9.95
2023-12-28T13:47:07.501Z,9.15
2023-12-28T13:49:57.170Z,8.77
2023-12-28T13:52:44.967Z,8.98
2023-12-28T13:55:34.812Z,9.00
2023-12-28T13:58:22.567Z,8.35
2023-12-28T14:01:11.728Z,9.15
2023-12-28T14:03:59.686Z,4.70
2023-12-28T14:06:47.775Z,7.88
2023-12-28T14:09:37.468Z,6.47
2023-12-28T14:12:25.401Z,8.23
2023-12-28T14:15:17.703Z,10.57
2023-12-28T14:20:54.460Z,10.55
2023-12-28T14:23:42.327Z,15.60
2023-12-28T14:26:30.815Z,17.90
2023-12-28T14:29:18.573Z,10.05
2023-12-28T14:32:06.398Z,12.85
2023-12-28T14:34:54.810Z,11.32
2023-12-28T14:37:43.212Z,10.00
2023-12-28T14:40:30.901Z,20.08
2023-12-28T14:43:18.976Z,24.50
2023-12-28T14:46:07.207Z,26.02
2023-12-28T14:48:56.025Z,18.02
2023-12-28T14:51:43.880Z,17.20
2023-12-28T14:54:34.469Z,18.73
2023-12-28T14:57:24.737Z,20.00
2023-12-28T15:00:12.642Z,18.52
2023-12-28T15:03:00.321Z,16.77
2023-12-28T15:05:48.833Z,23.13
2023-12-28T15:08:36.531Z,26.50
2023-12-28T15:11:33.834Z,35.67
2023-12-28T15:14:32.513Z,27.85
2023-12-28T15:17:20.403Z,28.38
2023-12-28T15:20:09.787Z,30.55
2023-12-28T15:23:03.547Z,35.83
2023-12-28T15:26:09.929Z,41.67
2023-12-28T15:29:00.155Z,32.55
2023-12-28T15:31:47.867Z,39.38
2023-12-28T15:34:35.630Z,68.95
2023-12-28T15:37:23.342Z,42.00
2023-12-28T15:40:11.491Z,70.60
2023-12-28T15:42:59.293Z,51.22
2023-12-28T15:45:46.942Z,35.25
2023-12-28T15:48:37.018Z,36.33
2023-12-28T15:54:14.367Z,50.38
2023-12-28T15:57:02.093Z,61.10
2023-12-28T15:59:50.257Z,71.00
2023-12-28T16:02:37.904Z,48.05
2023-12-28T16:05:25.598Z,72.78
2023-12-28T16:08:13.754Z,59.97
2023-12-28T16:11:03.218Z,38.28
2023-12-28T16:13:51.008Z,45.75
2023-12-28T16:16:38.817Z,55.40
2023-12-28T16:19:26.510Z,40.95
2023-12-28T16:22:15.223Z,69.75
2023-12-28T16:25:03.312Z,65.68
2023-12-28T16:27:51.109Z,79.63
2023-12-28T16:30:40.416Z,64.43
2023-12-28T16:33:31.384Z,58.00
2023-12-28T16:36:20.378Z,59.75
2023-12-28T16:39:08.587Z,58.00
2023-12-28T16:41:57.771Z,81.82
2023-12-28T16:44:48.226Z,55.03
2023-12-28T16:47:35.900Z,76.07
2023-12-28T16:50:25.602Z,131.65
2023-12-28T16:53:17.535Z,100.65
2023-12-28T16:56:05.357Z,129.57
2023-12-28T16:58:53.111Z,148.68
2023-12-28T17:01:40.878Z,144.25
2023-12-28T17:04:31.464Z,142.52
2023-12-28T17:07:22.014Z,140.13
2023-12-28T17:10:12.449Z,278.13
2023-12-28T17:13:00.400Z,217.90
2023-12-28T17:15:48.226Z,175.88
2023-12-28T17:18:48.566Z,170.82
2023-12-28T17:21:40.866Z,195.75
2023-12-28T17:27:20.587Z,116.50
2023-12-28T17:30:09.839Z,109.93
2023-12-28T17:33:03.074Z,92.32
2023-12-28T17:35:51.006Z,106.40
2023-12-28T17:38:38.815Z,86.05
2023-12-28T17:41:27.717Z,107.03
2023-12-28T17:44:19.388Z,113.10
2023-12-28T17:47:10.827Z,114.13
2023-12-28T17:50:01.287Z,122.20
2023-12-28T17:52:50.111Z,153.13
2023-12-28T17:55:37.716Z,154.18
2023-12-28T17:58:25.527Z,139.43
2023-12-28T18:01:17.129Z,120.38
2023-12-28T18:04:04.941Z,136.93
2023-12-28T18:06:54.097Z,129.68
2023-12-28T18:09:45.799Z,137.43
2023-12-28T18:12:33.612Z,133.27
2023-12-28T18:15:21.298Z,160.02
2023-12-28T18:18:09.028Z,158.38
2023-12-28T18:20:57.100Z,136.80
2023-12-28T18:23:47.132Z,111.13
2023-12-28T18:26:34.725Z,102.38
2023-12-28T18:29:23.379Z,89.55
2023-12-28T18:32:12.405Z,90.45
2023-12-28T18:35:00.040Z,91.88
2023-12-28T18:37:47.646Z,128.80
2023-12-28T18:40:38.361Z,102.32
2023-12-28T18:43:26.895Z,105.07
2023-12-28T18:46:14.679Z,108.00
2023-12-28T18:49:04.442Z,102.25
2023-12-28T18:51:52.242Z,84.47
2023-12-28T18:54:40.267Z,111.32
2023-12-28T18:57:28.184Z,123.82
2023-12-28T19:00:16.475Z,111.60
2023-12-28T19:03:05.421Z,97.75
2023-12-28T19:05:54.480Z,97.03
2023-12-28T19:08:52.173Z,109.90
2023-12-28T19:11:40.720Z,83.88
2023-12-28T19:14:28.446Z,105.70
2023-12-28T19:17:19.077Z,109.82
2023-12-28T19:20:07.023Z,96.38
2023-12-28T19:22:54.802Z,92.55
2023-12-28T19:25:42.614Z,118.20
2023-12-28T19:28:33.545Z,121.82
2023-12-28T19:31:21.374Z,105.53
2023-12-28T19:34:09.178Z,137.85
2023-12-28T19:36:56.967Z,116.75
2023-12-28T19:39:46.014Z,122.80
2023-12-28T19:42:33.703Z,132.55
2023-12-28T19:45:21.395Z,122.38
2023-12-28T19:48:09.637Z,139.18
2023-12-28T19:50:57.365Z,143.07
2023-12-28T19:53:45.457Z,142.50
2023-12-28T19:56:33.168Z,165.60
2023-12-28T19:59:21.189Z,179.38
2023-12-28T20:02:10.372Z,160.77
2023-12-28T20:04:58.096Z,141.50
2023-12-28T20:07:45.773Z,165.23
2023-12-28T20:10:34.325Z,155.13
2023-12-28T20:13:22.695Z,132.00
2023-12-28T20:16:11.132Z,141.93
2023-12-28T20:19:01.927Z,138.10
2023-12-28T20:21:51.954Z,129.52
2023-12-28T20:24:40.442Z,116.68
2023-12-28T20:27:28.242Z,104.63
2023-12-28T20:30:19.396Z,124.90
2023-12-28T20:33:08.606Z,137.20
2023-12-28T20:35:58.669Z,122.45
2023-12-28T20:38:46.354Z,126.82
2023-12-28T20:41:36.761Z,107.85
2023-12-28T20:44:24.547Z,91.07
2023-12-28T20:47:13.310Z,73.70
2023-12-28T20:50:02.306Z,61.60
2023-12-28T20:52:52.400Z,81.88
2023-12-28T20:55:40.781Z,93.47
2023-12-28T20:58:28.814Z,97.95
2023-12-28T21:01:16.749Z,87.13
2023-12-28T21:04:04.731Z,81.65
2023-12-28T21:06:52.548Z,73.38
2023-12-28T21:09:44.277Z,82.10
2023-12-28T21:12:38.373Z,71.70
2023-12-28T21:15:26.179Z,74.63
2023-12-28T21:18:19.722Z,85.97
2023-12-28T21:21:15.141Z,70.82
2023-12-28T21:24:05.678Z,61.75
2023-12-28T21:26:53.356Z,49.55
2023-12-28T21:29:41.796Z,54.92
2023-12-28T21:32:29.559Z,46.17
2023-12-28T21:35:17.523Z,52.40
2023-12-28T21:38:08.738Z,54.00
2023-12-28T21:40:56.479Z,48.75
2023-12-28T21:43:44.394Z,49.53
2023-12-28T21:46:32.404Z,52.55
2023-12-28T21:49:24.187Z,61.75
2023-12-28T21:52:15.983Z,52.08
2023-12-28T21:55:06.015Z,47.63
2023-12-28T21:57:56.133Z,53.45
2023-12-28T22:00:44.007Z,62.20
2023-12-28T22:03:31.961Z,63.08
2023-12-28T22:06:21.025Z,59.50
2023-12-28T22:09:08.628Z,60.85
2023-12-28T22:11:56.486Z,66.22
2023-12-28T22:14:45.372Z,53.65
2023-12-28T22:17:33.404Z,59.75
2023-12-28T22:20:24.142Z,71.03
2023-12-28T22:23:12.728Z,143.35
2023-12-28T22:26:00.661Z,127.53
2023-12-28T22:28:48.422Z,90.28
2023-12-28T22:31:36.611Z,103.47
2023-12-28T22:34:24.711Z,100.53
2023-12-28T22:37:12.831Z,90.63
2023-12-28T22:40:03.785Z,75.35
2023-12-28T22:42:54.757Z,96.45
2023-12-28T22:45:42.593Z,79.97
2023-12-28T22:48:30.413Z,75.78
2023-12-28T22:51:18.973Z,69.28
2023-12-28T22:54:06.816Z,61.92
2023-12-28T22:56:54.809Z,73.53
2023-12-28T22:59:46.792Z,73.88
2023-12-28T23:02:34.725Z,55.55
2023-12-28T23:05:23.022Z,45.60
2023-12-28T23:08:10.922Z,56.85
2023-12-28T23:10:59.505Z,48.67
2023-12-28T23:13:47.295Z,55.22
2023-12-28T23:16:41.999Z,51.05
2023-12-28T23:19:29.742Z,64.97
2023-12-28T23:22:17.953Z,92.78
2023-12-28T23:25:08.587Z,65.28
2023-12-28T23:27:56.302Z,77.05
2023-12-28T23:31:16.398Z,74.05
2023-12-28T23:34:09.143Z,63.38
2023-12-28T23:37:02.933Z,68.13
2023-12-28T23:39:50.960Z,77.75
2023-12-28T23:42:38.741Z,82.85
2023-12-28T23:45:29.724Z,77.30
2023-12-28T23:48:17.547Z,71.22
2023-12-28T23:51:10.589Z,73.78
2023-12-28T23:53:58.195Z,71.20
2023-12-28T23:56:48.780Z,67.80
2023-12-28T23:59:37.712Z,66.88
